Time;durP1;ratioP1;P1;durP2;ratioP2;P2;SDS_P1;SDS_P2;PMS_P1;PMS_P2;Temp;Humidity;BMP_temperature;BMP_pressure;BME280_temperature;BME280_humidity;BME280_pressure;Samples;Min_cycle;Max_cycle;Signal;HPM_P1;HPM_P2
2022/12/23 00:00:28;;;;;;;54.60;24.55;;;;;;;2.17;100.00;99628.97;5030110;28;20095;-42
2022/12/23 00:02:55;;;;;;;53.45;22.20;;;;;;;2.19;100.00;99633.00;5035422;28;20422;-42
2022/12/23 00:05:22;;;;;;;47.50;20.95;;;;;;;2.22;100.00;99648.75;5030876;28;20128;-42
2022/12/23 00:07:48;;;;;;;47.58;21.45;;;;;;;2.17;100.00;99634.44;5022460;28;20092;-44
2022/12/23 00:10:15;;;;;;;47.25;21.27;;;;;;;2.17;100.00;99631.72;5026334;28;20057;-42
2022/12/23 00:15:27;;;;;;;39.78;20.42;;;;;;;2.07;100.00;99615.59;5029502;28;20132;-42
2022/12/23 00:17:54;;;;;;;38.53;21.08;;;;;;;2.04;100.00;99613.53;5027543;28;20049;-42
2022/12/23 00:20:21;;;;;;;37.80;16.25;;;;;;;2.03;100.00;99617.38;5024052;28;20057;-43
2022/12/23 00:23:05;;;;;;;35.80;16.90;;;;;;;2.05;100.00;99626.84;5030233;28;20041;-42
2022/12/23 00:25:39;;;;;;;31.13;16.00;;;;;;;2.10;100.00;99636.81;5030244;28;20183;-42
2022/12/23 00:28:11;;;;;;;38.75;18.33;;;;;;;2.14;100.00;99632.34;5033001;28;20813;-42
2022/12/23 00:30:51;;;;;;;37.20;17.38;;;;;;;2.21;100.00;99629.94;5028816;28;20560;-42
2022/12/23 00:33:23;;;;;;;41.08;19.77;;;;;;;2.26;100.00;99643.44;5010558;28;20055;-42
2022/12/23 00:35:50;;;;;;;38.85;19.92;;;;;;;2.31;100.00;99646.03;5029662;28;20107;-42
2022/12/23 00:43:52;;;;;;;48.28;23.83;;;;;;;2.42;100.00;99639.16;5019166;28;20060;-44
2022/12/23 00:46:19;;;;;;;48.47;24.42;;;;;;;2.44;100.00;99634.16;5029123;28;20046;-42
2022/12/23 00:51:31;;;;;;;56.33;23.58;;;;;;;2.51;100.00;99612.66;5030446;28;20052;-42
2022/12/23 00:53:57;;;;;;;49.88;23.00;;;;;;;2.55;100.00;99608.16;5035094;28;20049;-42
2022/12/23 00:56:24;;;;;;;39.33;19.15;;;;;;;2.55;100.00;99594.50;5026712;28;20059;-42
2022/12/23 00:58:51;;;;;;;34.70;15.55;;;;;;;2.53;100.00;99594.03;5028424;28;20049;-43
2022/12/23 01:06:48;;;;;;;29.95;13.63;;;;;;;2.49;100.00;99584.06;5028801;28;20595;-42
2022/12/23 01:09:15;;;;;;;28.23;13.90;;;;;;;2.49;100.00;99582.13;5028796;28;20145;-41
2022/12/23 01:11:42;;;;;;;22.60;11.20;;;;;;;2.47;100.00;99562.50;5028649;28;20512;-42
2022/12/23 01:14:10;;;;;;;24.65;12.07;;;;;;;2.48;100.00;99564.13;5026853;28;20045;-44
2022/12/23 01:16:37;;;;;;;26.92;13.52;;;;;;;2.50;100.00;99561.88;5028509;28;20045;-42
2022/12/23 01:19:06;;;;;;;28.92;11.40;;;;;;;2.50;100.00;99548.22;5028468;28;20044;-41
2022/12/23 01:21:33;;;;;;;29.63;11.13;;;;;;;2.47;100.00;99540.66;5028958;28;20057;-43
2022/12/23 01:24:00;;;;;;;33.58;12.48;;;;;;;2.50;100.00;99529.09;5010066;28;20059;-41
2022/12/23 01:26:27;;;;;;;42.38;13.70;;;;;;;2.48;100.00;99525.88;5028263;28;20051;-41
2022/12/23 01:28:55;;;;;;;33.28;14.23;;;;;;;2.47;100.00;99521.53;5028313;28;20124;-41
2022/12/23 01:31:24;;;;;;;36.35;16.35;;;;;;;2.43;100.00;99528.78;5027148;28;20052;-42
2022/12/23 01:33:52;;;;;;;34.58;14.43;;;;;;;2.37;100.00;99519.13;5027404;28;20080;-41
2022/12/23 01:36:20;;;;;;;32.45;14.60;;;;;;;2.32;100.00;99514.63;5028141;28;20277;-42
2022/12/23 01:38:47;;;;;;;27.13;12.85;;;;;;;2.30;100.00;99525.06;5028033;28;20495;-47
2022/12/23 01:42:42;;;;;;;26.00;11.80;;;;;;;2.27;100.00;99519.44;5025729;28;20053;-42
2022/12/23 01:44:22;;;;;;;25.95;11.95;;;;;;;2.26;100.00;99517.84;5027603;28;20041;-45
2022/12/23 01:46:49;;;;;;;20.33;8.45;;;;;;;2.26;100.00;99501.44;5027939;28;20051;-47
2022/12/23 01:49:16;;;;;;;19.30;9.43;;;;;;;2.22;100.00;99495.84;5027635;28;20059;-45
2022/12/23 01:51:43;;;;;;;19.80;9.20;;;;;;;2.18;100.00;99497.59;5026809;28;20056;-44
2022/12/23 01:54:09;;;;;;;19.77;10.18;;;;;;;2.16;100.00;99515.41;5027722;28;20041;-42
2022/12/23 01:56:38;;;;;;;16.63;7.93;;;;;;;2.17;100.00;99506.13;5027803;28;20443;-42
2022/12/23 01:59:08;;;;;;;19.23;9.30;;;;;;;2.21;100.00;99510.63;5027779;28;20058;-41
2022/12/23 02:04:23;;;;;;;26.02;10.43;;;;;;;2.23;100.00;99485.72;5028932;28;20051;-42
2022/12/23 02:09:39;;;;;;;27.25;10.30;;;;;;;2.21;100.00;99498.88;5027518;28;20046;-41
2022/12/23 02:12:20;;;;;;;49.03;12.20;;;;;;;2.21;100.00;99499.69;5026280;28;20041;-42
2022/12/23 02:17:53;;;;;;;104.35;17.08;;;;;;;2.21;100.00;99501.63;5027697;28;20037;-45
2022/12/23 02:20:22;;;;;;;82.32;17.20;;;;;;;2.20;100.00;99506.25;5026177;28;20049;-42
2022/12/23 02:22:58;;;;;;;78.28;16.75;;;;;;;2.20;100.00;99497.25;5026550;28;20432;-42
2022/12/23 02:25:37;;;;;;;58.03;16.55;;;;;;;2.20;100.00;99513.66;5027290;28;20128;-41
2022/12/23 02:28:35;;;;;;;97.68;19.90;;;;;;;2.21;100.00;99501.63;5027475;28;20051;-42
2022/12/23 02:31:11;;;;;;;54.78;16.48;;;;;;;2.28;100.00;99496.47;5026140;28;20348;-41
2022/12/23 02:34:10;;;;;;;48.83;17.52;;;;;;;2.36;100.00;99499.22;5027500;28;20041;-41
2022/12/23 02:36:50;;;;;;;35.95;14.18;;;;;;;2.42;100.00;99500.66;4977686;28;20047;-41
2022/12/23 02:39:44;;;;;;;38.42;17.52;;;;;;;2.51;100.00;99489.75;5008916;28;20156;-41
2022/12/23 02:42:19;;;;;;;46.05;18.25;;;;;;;2.57;100.00;99474.78;5022187;28;20439;-43
2022/12/23 02:44:52;;;;;;;45.40;16.38;;;;;;;2.63;100.00;99469.94;5027864;28;20403;-45
2022/12/23 02:47:26;;;;;;;43.25;15.77;;;;;;;2.69;100.00;99458.53;5026885;28;20052;-42
2022/12/23 02:50:01;;;;;;;31.48;13.23;;;;;;;2.76;100.00;99455.28;5026955;28;20060;-45
2022/12/23 02:52:31;;;;;;;29.15;12.23;;;;;;;2.82;100.00;99437.59;5025631;28;20112;-44
2022/12/23 02:55:04;;;;;;;38.25;12.43;;;;;;;2.88;100.00;99423.44;5026633;28;20052;-41
2022/12/23 02:57:36;;;;;;;38.85;12.82;;;;;;;2.92;100.00;99416.19;5026231;28;20041;-42
2022/12/23 03:00:04;;;;;;;40.03;12.25;;;;;;;2.97;100.00;99407.81;5027047;28;20630;-41
2022/12/23 03:02:36;;;;;;;32.72;12.77;;;;;;;3.01;100.00;99408.75;5109650;23;20059;-42
2022/12/23 03:05:03;;;;;;;37.15;12.02;;;;;;;3.05;100.00;99406.97;5046206;28;20061;-44
2022/12/23 03:07:35;;;;;;;48.10;14.50;;;;;;;3.10;100.00;99397.78;5046532;28;20040;-42
2022/12/23 03:10:39;;;;;;;45.40;14.95;;;;;;;3.14;100.00;99387.00;5046573;28;20537;-42
2022/12/23 03:13:33;;;;;;;42.65;13.25;;;;;;;3.18;100.00;99401.63;5037315;28;20107;-42
2022/12/23 03:16:19;;;;;;;37.03;16.50;;;;;;;3.21;100.00;99400.94;5043116;28;20048;-42
2022/12/23 03:19:31;;;;;;;48.28;16.73;;;;;;;3.23;100.00;99377.59;5046151;28;20041;-42
2022/12/23 03:22:20;;;;;;;40.33;14.30;;;;;;;3.26;100.00;99376.94;5042036;28;20088;-41
2022/12/23 03:24:47;;;;;;;32.88;12.48;;;;;;;3.29;100.00;99373.56;5038123;28;20040;-42
2022/12/23 03:27:30;;;;;;;41.05;16.02;;;;;;;3.32;100.00;99363.88;5046169;28;20506;-43
2022/12/23 03:30:08;;;;;;;48.40;16.02;;;;;;;3.36;100.00;99354.69;5044472;28;20079;-41
2022/12/23 03:32:42;;;;;;;46.10;16.75;;;;;;;3.41;100.00;99350.97;5033656;28;20045;-46
2022/12/23 03:35:15;;;;;;;45.33;15.35;;;;;;;3.43;100.00;99348.69;5046315;28;20055;-41
2022/12/23 03:37:43;;;;;;;;;;;;;;;3.42;100.00;99347.88;5046959;28;20139;-46
2022/12/23 03:40:19;;;;;;;43.95;15.43;;;;;;;3.41;100.00;99340.03;5046080;28;20290;-43
2022/12/23 03:42:51;;;;;;;45.40;15.40;;;;;;;3.44;100.00;99339.38;5044949;28;20084;-42
2022/12/23 03:45:24;;;;;;;42.20;15.15;;;;;;;3.49;100.00;99333.69;5028370;28;20045;-41
2022/12/23 03:48:20;;;;;;;37.75;14.57;;;;;;;3.54;100.00;99322.56;5045365;28;20422;-41
2022/12/23 03:50:54;;;;;;;35.03;14.15;;;;;;;3.60;100.00;99322.00;5045397;28;20048;-42
2022/12/23 03:53:29;;;;;;;35.53;14.68;;;;;;;3.64;100.00;99319.41;5046273;28;20417;-41
2022/12/23 03:56:08;;;;;;;35.83;13.52;;;;;;;3.68;100.00;99310.19;5025033;28;20099;-44
2022/12/23 03:58:43;;;;;;;24.70;11.32;;;;;;;3.71;100.00;99303.25;5044692;28;20064;-42
2022/12/23 04:01:38;;;;;;;31.92;11.43;;;;;;;3.75;100.00;99301.44;5044706;28;20486;-42
2022/12/23 04:04:20;;;;;;;25.95;11.07;;;;;;;3.78;100.00;99287.09;5043699;28;20489;-42
2022/12/23 04:06:57;;;;;;;31.42;12.40;;;;;;;3.83;100.00;99281.41;5031970;28;20048;-42
2022/12/23 04:09:26;;;;;;;30.23;11.45;;;;;;;3.87;100.00;99271.38;5049584;28;20518;-42
2022/12/23 04:11:54;;;;;;;31.80;10.77;;;;;;;3.91;100.00;99277.81;5048611;28;20048;-42
2022/12/23 04:14:21;;;;;;;27.45;10.88;;;;;;;3.93;100.00;99275.53;5049876;28;20049;-42
2022/12/23 04:16:54;;;;;;;25.00;10.50;;;;;;;3.96;100.00;99268.56;5041719;28;20053;-42
2022/12/23 04:19:21;;;;;;;19.55;8.85;;;;;;;3.97;100.00;99246.31;5050159;28;20126;-42
2022/12/23 04:21:48;;;;;;;26.95;9.88;;;;;;;4.01;100.00;99244.50;5041539;28;20140;-41
2022/12/23 04:24:15;;;;;;;22.85;9.35;;;;;;;4.05;100.00;99239.19;5049596;28;20055;-45
2022/12/23 04:26:42;;;;;;;15.95;7.40;;;;;;;4.09;100.00;99240.88;5049576;28;20049;-42
2022/12/23 04:29:08;;;;;;;16.55;6.90;;;;;;;4.14;100.00;99234.38;5031669;28;20077;-41
2022/12/23 04:31:35;;;;;;;17.35;5.90;;;;;;;4.18;100.00;99221.63;5048166;28;20076;-42
2022/12/23 04:34:02;;;;;;;11.63;5.53;;;;;;;4.20;100.00;99220.16;5049425;28;20136;-42
2022/12/23 04:36:29;;;;;;;12.43;6.00;;;;;;;4.26;100.00;99215.25;5049534;28;20136;-42
2022/12/23 04:38:56;;;;;;;13.20;4.60;;;;;;;4.29;100.00;99212.59;5039449;28;20557;-43
2022/12/23 04:41:23;;;;;;;9.38;3.90;;;;;;;4.34;100.00;99208.88;5044761;28;20127;-42
2022/12/23 04:43:49;;;;;;;8.13;3.75;;;;;;;4.38;100.00;99192.53;5049540;28;20080;-42
2022/12/23 04:46:19;;;;;;;8.13;3.22;;;;;;;4.45;100.00;99192.78;5049310;28;20048;-51
2022/12/23 04:48:46;;;;;;;6.32;2.92;;;;;;;4.50;100.00;99190.59;5049510;28;20055;-45
2022/12/23 04:51:12;;;;;;;11.05;2.65;;;;;;;4.55;100.00;99181.34;5048217;28;20045;-42
2022/12/23 04:53:39;;;;;;;8.75;2.55;;;;;;;4.60;100.00;99179.19;5049815;28;20754;-42
2022/12/23 04:56:06;;;;;;;9.70;2.03;;;;;;;4.66;100.00;99166.03;5048975;28;20078;-46
2022/12/23 04:58:32;;;;;;;6.03;1.90;;;;;;;4.72;100.00;99159.16;5049711;28;20053;-43
2022/12/23 05:01:04;;;;;;;6.25;1.40;;;;;;;4.81;100.00;99140.66;5047832;28;20061;-40
2022/12/23 05:03:31;;;;;;;3.17;1.10;;;;;;;4.93;100.00;99146.91;5048556;28;20045;-40
2022/12/23 05:05:58;;;;;;;3.08;1.02;;;;;;;5.04;100.00;99152.72;5049186;28;20045;-40
2022/12/23 05:08:25;;;;;;;4.57;1.00;;;;;;;5.11;100.00;99139.19;5049085;28;20149;-44
2022/12/23 05:10:52;;;;;;;8.13;1.90;;;;;;;5.18;100.00;99144.91;5030525;28;20399;-41
2022/12/23 05:13:19;;;;;;;8.25;2.42;;;;;;;5.26;100.00;99132.97;5048296;28;20059;-44
2022/12/23 05:15:48;;;;;;;5.90;1.25;;;;;;;5.37;100.00;99125.84;5030838;28;20063;-40
2022/12/23 05:18:15;;;;;;;6.15;1.42;;;;;;;5.46;100.00;99118.25;5048337;28;20049;-40
2022/12/23 05:20:42;;;;;;;6.80;1.25;;;;;;;5.51;100.00;99123.47;5049211;28;20060;-42
2022/12/23 05:23:09;;;;;;;4.82;1.25;;;;;;;5.54;100.00;99109.06;5047338;28;20045;-40
2022/12/23 05:25:37;;;;;;;3.10;1.08;;;;;;;5.56;100.00;99102.44;5048687;28;20513;-44
2022/12/23 05:28:06;;;;;;;13.57;1.80;;;;;;;5.61;100.00;99085.69;5048295;28;20053;-41
2022/12/23 05:30:33;;;;;;;2.70;1.42;;;;;;;5.66;100.00;99085.44;5047861;28;20041;-40
2022/12/23 05:33:00;;;;;;;4.28;1.50;;;;;;;5.68;100.00;99078.44;5047395;28;20052;-45
2022/12/23 05:35:27;;;;;;;9.50;2.58;;;;;;;5.71;100.00;99074.19;5048303;28;20083;-40
2022/12/23 05:37:53;;;;;;;6.40;1.80;;;;;;;5.78;100.00;99071.59;5048170;28;20075;-41
2022/12/23 05:40:20;;;;;;;10.95;1.80;;;;;;;5.84;100.00;99081.19;5048125;28;20690;-40
2022/12/23 05:42:54;;;;;;;9.75;2.05;;;;;;;5.89;100.00;99065.28;5039346;28;20134;-43
2022/12/23 05:45:21;;;;;;;10.35;2.28;;;;;;;5.90;100.00;99060.59;5048587;28;20049;-42
2022/12/23 05:47:48;;;;;;;13.90;2.47;;;;;;;5.92;100.00;99061.81;5047597;28;20053;-44
2022/12/23 05:50:14;;;;;;;10.73;2.58;;;;;;;5.96;100.00;99056.41;5047883;28;20144;-40
2022/12/23 05:52:41;;;;;;;12.20;2.20;;;;;;;6.01;100.00;99048.69;5046874;28;20477;-49
2022/12/23 05:55:08;;;;;;;5.28;1.60;;;;;;;6.03;100.00;99042.84;5048733;28;20088;-40
2022/12/23 05:57:35;;;;;;;10.90;1.95;;;;;;;6.05;100.00;99035.84;5048012;28;20045;-39
2022/12/23 06:00:03;;;;;;;3.38;1.05;;;;;;;6.08;100.00;99028.84;5047370;28;20068;-41
2022/12/23 06:02:29;;;;;;;3.80;1.27;;;;;;;6.09;100.00;99024.91;5045277;28;20139;-40
2022/12/23 06:04:56;;;;;;;8.00;1.38;;;;;;;6.12;100.00;99026.97;5046938;28;20087;-41
2022/12/23 06:07:23;;;;;;;4.00;1.00;;;;;;;6.14;100.00;99017.19;5047853;28;20155;-40
2022/12/23 06:09:50;;;;;;;10.55;1.42;;;;;;;6.15;100.00;99018.00;5047530;28;20041;-40
2022/12/23 06:12:17;;;;;;;8.38;1.38;;;;;;;6.19;100.00;99018.09;5046411;28;20045;-40
2022/12/23 06:14:43;;;;;;;7.88;1.55;;;;;;;6.21;100.00;99005.59;5048282;28;20067;-41
2022/12/23 06:17:10;;;;;;;8.65;2.20;;;;;;;6.23;100.00;98997.78;5046832;28;20056;-40
2022/12/23 06:19:36;;;;;;;3.83;1.38;;;;;;;6.25;100.00;98989.97;5047517;28;20049;-45
2022/12/23 06:22:03;;;;;;;4.03;1.17;;;;;;;6.26;100.00;98975.09;5045390;28;20405;-40
2022/12/23 06:24:30;;;;;;;4.22;0.90;;;;;;;6.29;100.00;98968.88;5047431;28;20048;-47
2022/12/23 06:26:57;;;;;;;4.10;0.80;;;;;;;6.30;100.00;98959.44;5047216;28;20066;-42
2022/12/23 06:29:24;;;;;;;8.20;1.67;;;;;;;6.31;100.00;98961.06;5046222;28;20490;-40
2022/12/23 06:31:50;;;;;;;4.30;0.82;;;;;;;6.33;100.00;98946.97;5045907;28;20041;-40
2022/12/23 06:34:17;;;;;;;2.40;0.90;;;;;;;6.34;100.00;98951.28;5047007;28;20455;-39
2022/12/23 06:36:44;;;;;;;11.05;1.42;;;;;;;6.36;100.00;98943.47;5046393;28;20333;-40
2022/12/23 06:39:11;;;;;;;11.20;1.08;;;;;;;6.38;100.00;98941.19;5046895;28;20040;-40
2022/12/23 06:41:37;;;;;;;8.68;1.58;;;;;;;6.37;100.00;98931.34;5045654;28;20040;-40
2022/12/23 06:44:04;;;;;;;4.50;0.90;;;;;;;6.37;100.00;98918.41;5046373;28;20059;-40
2022/12/23 06:46:31;;;;;;;3.22;1.00;;;;;;;6.39;100.00;98918.81;5046878;28;20051;-40
2022/12/23 06:48:58;;;;;;;5.25;0.95;;;;;;;6.42;100.00;98920.84;5047041;28;20052;-39
2022/12/23 06:51:25;;;;;;;2.55;1.00;;;;;;;6.42;100.00;98917.31;5045958;28;20391;-40
2022/12/23 06:53:52;;;;;;;9.07;3.00;;;;;;;6.40;100.00;98900.38;5046036;28;20051;-42
2022/12/23 06:56:19;;;;;;;11.88;2.47;;;;;;;6.42;100.00;98901.63;5046578;28;20045;-41
2022/12/23 06:58:46;;;;;;;9.50;1.08;;;;;;;6.44;100.00;98895.75;5047052;28;20140;-40
2022/12/23 07:01:12;;;;;;;10.00;1.02;;;;;;;6.45;100.00;98895.41;5044733;28;20509;-44
2022/12/23 07:03:39;;;;;;;3.78;1.23;;;;;;;6.44;100.00;98893.78;5046450;28;20045;-43
2022/12/23 07:06:06;;;;;;;6.82;2.03;;;;;;;6.46;100.00;98896.97;5033775;28;20491;-40
2022/12/23 07:08:33;;;;;;;10.40;1.33;;;;;;;6.45;100.00;98898.16;5046393;28;20128;-43
2022/12/23 07:11:02;;;;;;;9.02;1.15;;;;;;;6.45;100.00;98884.41;5045735;28;20040;-41
2022/12/23 07:13:30;;;;;;;7.28;1.33;;;;;;;6.50;100.00;98897.03;5046360;28;20052;-40
2022/12/23 07:16:04;;;;;;;7.90;1.13;;;;;;;6.53;100.00;98897.13;5046502;28;20045;-44
2022/12/23 07:18:34;;;;;;;3.88;0.80;;;;;;;6.55;100.00;98905.81;5046249;28;20057;-40
2022/12/23 07:21:02;;;;;;;4.43;1.38;;;;;;;6.56;100.00;98901.91;5028615;28;20048;-40
2022/12/23 07:23:29;;;;;;;5.70;1.38;;;;;;;6.59;100.00;98906.66;5045994;28;20441;-40
2022/12/23 07:25:56;;;;;;;8.80;1.38;;;;;;;6.58;100.00;98916.06;5028499;28;20491;-40
2022/12/23 07:28:23;;;;;;;7.32;1.40;;;;;;;6.58;100.00;98923.53;5045777;28;20049;-40
2022/12/23 07:30:50;;;;;;;12.38;2.97;;;;;;;6.56;100.00;98921.16;5046463;28;20479;-40
2022/12/23 07:33:16;;;;;;;8.77;1.77;;;;;;;6.50;100.00;98930.84;5045492;28;20458;-40
2022/12/23 07:35:43;;;;;;;13.23;4.18;;;;;;;6.50;100.00;98922.59;5046516;28;20052;-40
2022/12/23 07:38:10;;;;;;;10.27;2.10;;;;;;;6.49;100.00;98920.97;5046309;28;20072;-40
2022/12/23 07:40:37;;;;;;;13.35;2.00;;;;;;;6.48;100.00;98911.16;5048446;28;20114;-40
2022/12/23 07:43:04;;;;;;;7.20;1.77;;;;;;;6.46;100.00;98912.69;5048966;28;20140;-40
2022/12/23 07:45:31;;;;;;;4.25;1.38;;;;;;;6.45;100.00;98906.38;5049147;28;20041;-41
2022/12/23 07:47:59;;;;;;;10.75;1.58;;;;;;;6.43;100.00;98892.22;5050290;28;20509;-40
2022/12/23 07:50:27;;;;;;;7.88;1.27;;;;;;;6.42;100.00;98890.63;5049989;28;20136;-43
2022/12/23 07:52:54;;;;;;;6.38;1.20;;;;;;;6.41;100.00;98886.25;5049242;28;20051;-40
2022/12/23 07:55:21;;;;;;;9.35;1.65;;;;;;;6.39;100.00;98885.84;5050151;28;20045;-45
2022/12/23 07:57:48;;;;;;;6.78;1.45;;;;;;;6.37;100.00;98877.16;5050249;28;20140;-40
2022/12/23 08:00:16;;;;;;;7.38;1.08;;;;;;;6.34;100.00;98875.16;5050461;28;20077;-40
2022/12/23 08:02:42;;;;;;;3.72;1.10;;;;;;;6.32;100.00;98874.72;5046866;28;20052;-40
2022/12/23 08:05:10;;;;;;;9.50;2.38;;;;;;;6.31;100.00;98856.63;5050107;28;20048;-46
2022/12/23 08:07:38;;;;;;;13.07;1.50;;;;;;;6.28;100.00;98842.81;5049867;28;20522;-40
2022/12/23 08:10:05;;;;;;;8.05;1.70;;;;;;;6.25;100.00;98836.09;5051142;28;20106;-40
2022/12/23 08:12:32;;;;;;;6.13;1.15;;;;;;;6.22;100.00;98830.53;5028234;28;20127;-40
2022/12/23 08:14:59;;;;;;;5.05;1.45;;;;;;;6.20;100.00;98828.13;5050078;28;20411;-39
2022/12/23 08:17:28;;;;;;;11.93;1.60;;;;;;;6.18;100.00;98826.91;5048704;28;20553;-40
2022/12/23 08:19:55;;;;;;;14.10;1.48;;;;;;;6.16;100.00;98827.28;5049336;28;20059;-39
2022/12/23 08:22:23;;;;;;;11.18;1.80;;;;;;;6.16;100.00;98830.03;5032169;28;20529;-39
2022/12/23 08:24:51;;;;;;;13.20;2.15;;;;;;;6.16;100.00;98829.22;5049594;28;20172;-41
2022/12/23 08:27:18;;;;;;;10.50;2.17;;;;;;;6.15;100.00;98842.16;5049192;28;20041;-39
2022/12/23 08:29:45;;;;;;;10.55;3.35;;;;;;;6.18;100.00;98837.91;5049913;28;20040;-39
2022/12/23 08:32:11;;;;;;;6.25;1.85;;;;;;;6.18;100.00;98835.16;5048633;28;20037;-39
2022/12/23 08:34:38;;;;;;;8.80;1.73;;;;;;;6.17;100.00;98825.34;5030701;28;20123;-39
2022/12/23 08:37:05;;;;;;;14.80;1.92;;;;;;;6.17;100.00;98828.84;5041883;28;20467;-44
2022/12/23 08:39:32;;;;;;;9.73;1.42;;;;;;;6.19;100.00;98823.81;5048183;28;20559;-40
2022/12/23 08:41:58;;;;;;;9.50;1.42;;;;;;;6.19;100.00;98820.28;5049578;28;20056;-39
2022/12/23 08:44:26;;;;;;;14.80;2.40;;;;;;;6.19;100.00;98825.75;5031350;28;20052;-39
2022/12/23 08:46:54;;;;;;;9.63;1.52;;;;;;;6.19;100.00;98820.28;5048117;28;20119;-39
2022/12/23 08:49:21;;;;;;;9.38;1.73;;;;;;;6.20;100.00;98819.91;5049172;28;20056;-39
2022/12/23 08:51:48;;;;;;;9.27;2.05;;;;;;;6.20;100.00;98817.16;5019093;28;20056;-39
2022/12/23 08:54:16;;;;;;;5.18;1.75;;;;;;;6.21;100.00;98810.50;5043813;28;20048;-39
2022/12/23 08:56:43;;;;;;;13.00;2.05;;;;;;;6.21;100.00;98804.22;5047818;28;20048;-39
2022/12/23 08:59:14;;;;;;;16.42;2.05;;;;;;;6.21;100.00;98798.72;5049214;28;20051;-43
2022/12/23 09:01:46;;;;;;;7.03;1.90;;;;;;;6.21;100.00;98795.97;5049041;28;20307;-39
2022/12/23 09:04:13;;;;;;;6.55;2.33;;;;;;;6.23;100.00;98788.16;5048523;28;20494;-39
2022/12/23 09:06:41;;;;;;;16.52;2.72;;;;;;;6.24;100.00;98784.25;5047624;28;20112;-39
2022/12/23 09:09:10;;;;;;;8.85;1.90;;;;;;;6.23;100.00;98780.69;5048786;28;20112;-39
2022/12/23 09:11:37;;;;;;;10.20;1.77;;;;;;;6.24;100.00;98776.00;5047932;28;20049;-41
2022/12/23 09:14:07;;;;;;;15.15;2.63;;;;;;;6.25;100.00;98786.63;5047059;28;20322;-39
2022/12/23 09:16:34;;;;;;;3.70;0.98;;;;;;;6.25;100.00;98767.38;5030952;28;20450;-39
2022/12/23 09:19:01;;;;;;;11.73;2.28;;;;;;;6.25;100.00;98772.88;5048539;28;20512;-39
2022/12/23 09:21:28;;;;;;;16.63;2.13;;;;;;;6.26;100.00;98755.25;5048898;28;20045;-40
2022/12/23 09:23:55;;;;;;;10.20;2.03;;;;;;;6.28;100.00;98746.63;5047315;28;20151;-39
2022/12/23 09:26:25;;;;;;;12.52;2.60;;;;;;;6.29;100.00;98749.03;5044956;28;20136;-40
2022/12/23 09:28:56;;;;;;;10.60;2.20;;;;;;;6.29;100.00;98746.28;5036216;28;20132;-40
2022/12/23 09:31:24;;;;;;;6.50;2.13;;;;;;;6.31;100.00;98741.22;5047957;28;20110;-40
2022/12/23 09:33:58;;;;;;;22.30;4.85;;;;;;;6.33;100.00;98735.38;5045628;28;20478;-40
2022/12/23 09:36:24;;;;;;;9.50;2.03;;;;;;;6.33;100.00;98743.59;5042486;28;20043;-41
2022/12/23 09:38:56;;;;;;;21.75;3.15;;;;;;;6.35;100.00;98741.28;5047929;28;20389;-41
2022/12/23 09:41:23;;;;;;;;;;;;;;;6.33;100.00;98738.88;5036209;28;20068;-42
2022/12/23 09:43:53;;;;;;;5.60;1.50;;;;;;;6.33;100.00;98744.38;5047951;28;20020;-40
2022/12/23 09:46:23;;;;;;;11.60;1.88;;;;;;;6.33;100.00;98747.13;5047484;28;20414;-39
2022/12/23 09:49:11;;;;;;;9.68;1.58;;;;;;;6.34;100.00;98745.97;5047897;28;20086;-43
2022/12/23 09:51:38;;;;;;;6.53;1.60;;;;;;;6.35;100.00;98744.03;5030424;28;20533;-39
2022/12/23 09:54:21;;;;;;;7.57;2.15;;;;;;;6.34;100.00;98745.97;5044540;28;20076;-39
2022/12/23 09:57:14;;;;;;;12.68;1.65;;;;;;;6.34;100.00;98739.69;5047178;28;20045;-39
2022/12/23 09:59:53;;;;;;;;;;;;;;;6.31;100.00;98730.22;5039531;28;20045;-40
2022/12/23 10:02:28;;;;;;;6.82;1.30;;;;;;;6.28;100.00;98733.69;5041158;28;20349;-40
2022/12/23 10:05:08;;;;;;;6.63;1.58;;;;;;;6.28;100.00;98736.44;5037929;28;20041;-39
2022/12/23 10:07:44;;;;;;;7.00;1.70;;;;;;;6.27;100.00;98737.63;5029746;28;20047;-40
2022/12/23 10:10:24;;;;;;;5.93;1.65;;;;;;;6.28;100.00;98744.69;5047371;28;20052;-39
2022/12/23 10:12:52;;;;;;;10.02;1.70;;;;;;;6.29;100.00;98753.72;5046610;28;20514;-39
2022/12/23 10:15:28;;;;;;;3.67;1.50;;;;;;;6.31;100.00;98745.91;5047226;28;20068;-40
2022/12/23 10:18:00;;;;;;;10.95;1.92;;;;;;;6.32;100.00;98742.00;5046767;28;20475;-39
2022/12/23 10:20:43;;;;;;;9.80;1.90;;;;;;;6.34;100.00;98734.97;5047530;28;20139;-40
2022/12/23 10:23:15;;;;;;;5.22;1.83;;;;;;;6.36;100.00;98723.63;5046273;28;20526;-40
2022/12/23 10:25:49;;;;;;;9.25;2.20;;;;;;;6.41;100.00;98718.59;5047434;28;20135;-39
2022/12/23 10:28:16;;;;;;;12.43;2.60;;;;;;;6.42;100.00;98706.47;5044281;28;20044;-42
2022/12/23 10:30:53;;;;;;;15.65;2.50;;;;;;;6.46;100.00;98710.06;5043758;28;20071;-39
2022/12/23 10:33:48;;;;;;;6.95;2.25;;;;;;;6.50;100.00;98710.13;5047189;28;20044;-39
2022/12/23 10:36:26;;;;;;;13.02;3.17;;;;;;;6.53;100.00;98703.91;5046081;28;20048;-39
2022/12/23 10:39:31;;;;;;;17.38;3.42;;;;;;;6.55;100.00;98696.88;5047271;28;20049;-39
2022/12/23 10:42:28;;;;;;;16.25;4.18;;;;;;;6.59;100.00;98697.69;5000612;28;20506;-39
2022/12/23 10:45:04;;;;;;;139.80;17.55;;;;;;;6.62;100.00;98690.66;5046907;28;20052;-40
2022/12/23 10:47:45;;;;;;;12.63;3.25;;;;;;;6.65;100.00;98690.72;5046454;28;20051;-43
2022/12/23 10:50:34;;;;;;;10.88;3.70;;;;;;;6.67;100.00;98688.41;5046116;28;20091;-45
2022/12/23 10:53:08;;;;;;;11.38;3.35;;;;;;;6.68;100.00;98679.00;5045719;28;20045;-40
2022/12/23 10:55:37;;;;;;;8.18;3.25;;;;;;;6.72;100.00;98685.34;5047019;28;20199;-40
2022/12/23 10:58:10;;;;;;;9.85;3.20;;;;;;;6.75;100.00;98687.34;5047176;28;20126;-40
2022/12/23 11:00:39;;;;;;;8.90;4.22;;;;;;;6.81;100.00;98692.53;5044428;28;20403;-40
2022/12/23 11:03:16;;;;;;;19.60;4.28;;;;;;;6.84;100.00;98689.03;5045728;28;20060;-40
2022/12/23 11:05:45;;;;;;;8.75;3.05;;;;;;;6.86;100.00;98687.50;5046587;28;20048;-40
2022/12/23 11:08:12;;;;;;;11.23;3.20;;;;;;;6.89;100.00;98677.72;5046908;28;20135;-40
2022/12/23 11:10:39;;;;;;;22.00;3.83;;;;;;;6.93;100.00;98678.59;5028023;28;20080;-41
2022/12/23 11:13:05;;;;;;;26.92;4.18;;;;;;;6.96;100.00;98672.34;5046460;28;20044;-40
2022/12/23 11:15:34;;;;;;;13.50;4.20;;;;;;;7.00;100.00;98662.16;5046016;28;20040;-40
2022/12/23 11:18:20;;;;;;;32.30;5.65;;;;;;;7.03;100.00;98661.44;5047194;28;20052;-40
2022/12/23 11:21:02;;;;;;;12.88;2.50;;;;;;;7.06;100.00;98671.69;5033044;28;20503;-40
2022/12/23 11:23:33;;;;;;;10.95;3.08;;;;;;;7.07;100.00;98663.06;5047697;28;20044;-39
2022/12/23 11:26:06;;;;;;;13.27;3.33;;;;;;;7.11;100.00;98657.59;5027981;28;20132;-40
2022/12/23 11:28:37;;;;;;;14.05;4.32;;;;;;;7.13;100.00;98652.53;5046751;28;20053;-45
2022/12/23 11:31:10;;;;;;;8.70;2.50;;;;;;;7.13;100.00;98660.78;5041133;28;20198;-44
2022/12/23 11:33:51;;;;;;;9.45;3.00;;;;;;;7.15;100.00;98658.44;5043084;28;20045;-40
2022/12/23 11:36:26;;;;;;;15.57;3.53;;;;;;;7.16;100.00;98668.28;5040736;28;20051;-41
2022/12/23 11:38:58;;;;;;;10.23;2.90;;;;;;;7.17;100.00;98656.13;5044545;28;20049;-42
2022/12/23 11:41:43;;;;;;;12.38;3.75;;;;;;;7.19;100.00;98640.81;5043805;28;20071;-41
2022/12/23 11:44:25;;;;;;;10.30;3.85;;;;;;;7.23;100.00;98635.34;5039786;28;20053;-41
2022/12/23 11:46:52;;;;;;;12.93;5.35;;;;;;;7.25;100.00;98639.31;5044641;28;20503;-40
2022/12/23 11:49:21;;;;;;;19.05;5.00;;;;;;;7.27;100.00;98647.22;5046114;28;20063;-40
2022/12/23 11:52:01;;;;;;;11.32;4.43;;;;;;;7.28;100.00;98643.31;5026618;28;20136;-42
2022/12/23 11:54:28;;;;;;;9.73;4.10;;;;;;;7.28;100.00;98638.56;5046873;28;20057;-42
2022/12/23 11:56:56;;;;;;;12.85;4.40;;;;;;;7.29;100.00;98642.91;5046782;28;20450;-41
2022/12/23 11:59:39;;;;;;;11.30;4.80;;;;;;;7.31;100.00;98639.78;5043717;28;20470;-43
2022/12/23 12:02:19;;;;;;;15.63;4.20;;;;;;;7.31;100.00;98639.78;5020316;28;20083;-40
2022/12/23 12:04:56;;;;;;;9.20;4.03;;;;;;;7.29;100.00;98645.66;5044595;28;20048;-41
2022/12/23 12:07:24;;;;;;;21.27;5.88;;;;;;;7.29;100.00;98653.94;5046590;28;20461;-41
2022/12/23 12:09:55;;;;;;;8.52;4.05;;;;;;;7.27;100.00;98644.47;5044738;28;20056;-41